Franck Anne

Franck Anne

Statistiques 2018

  • Courses courues : 304
  • Nb de victoires : 37
  • Nb de places : 95
  • Écart gagnant : 4
  • Réussite à la gagne : 12%
  • Réussite à la place : 31%
Musique : 2a 6a 8a 5a 1a 1a 1a 6a 5a 7a Da 5a 3a 9a 8a 3a 8a 8a
DateRangCatégorieAlloc.Dist.HippodromeChevalRed. KmSpé.
16/07/18 2 Trot 16 000€ 2 925m Clairefontaine Elise 1'21"1 Attelé
16/07/18 6 Trot 12 000€ 2 200m Clairefontaine Filou de Boitron 1'23"1 Attelé
15/07/18 8 Trot 35 000€ 2 700m Le Mont Saint Michel Azur de Carina 1'14"7 Attelé
15/07/18 5 Trot 22 000€ 2 700m Le Mont Saint Michel Denys d'Ausson 1'15"8 Attelé
15/07/18 1 Trot 22 000€ 2 700m Le Mont Saint Michel Expert de la Cote 1'16"4 Attelé
14/07/18 1 Trot 14 000€ 2 600m Le Touquet Ever Favori Attelé
14/07/18 1 Trot 22 000€ 2 625m Le Touquet Caprice du Bisson Attelé
14/07/18 6 Trot 13 000€ 2 600m Le Touquet Elia Wic Attelé
14/07/18 5 Trot 13 000€ 2 600m Le Touquet Edene Victory TNC Attelé
14/07/18 7 Trot 10 000€ 2 600m Le Touquet Forcing du Cap Attelé
13/07/18 D Trot 35 000€ 2 775m Cabourg Faubourg du Perche Attelé lire

Après avoir attendu, s'est désuni pour finir.

12/07/18 5 Trot 21 000€ 2 400m Amiens Django Gibus 1'14"8 Attelé
12/07/18 3 Trot 21 000€ 2 400m Amiens Desira Swift 1'15"1 Attelé
12/07/18 9 Trot 22 000€ 2 400m Amiens Eva Nonantaise 1'16"5 Attelé
10/07/18 8 Trot 36 000€ 2 775m Cabourg Culture du Closet 1'16"1 Attelé
08/07/18 3 Trot 20 000€ 3 150m Ranes Caprice du Bisson Attelé
08/07/18 8 Trot 10 000€ 3 125m Ranes Buliano Attelé
08/07/18 8 Trot 12 000€ 2 150m Ranes Folie de Plany Attelé
07/07/18 5 Trot 30 000€ 2 975m Vichy Fiona de Bailly 1'16"6 Attelé
07/07/18 0 Trot 21 000€ 2 150m Vichy Cigale Madrik Attelé
07/07/18 2 Trot 120 000€ 2 975m Vichy Bahia Quesnot 1'11"7 Attelé
05/07/18 0 Trot 54 000€ 2 900m Enghien Soisy Amour du Loup Attelé lire

Rapproché en dehors après un tour, a lâché prise dans la ligne droite.

04/07/18 D Trot 19 000€ 2 725m Lisieux Ever Favori Attelé
04/07/18 5 Trot 24 000€ 2 675m Lisieux Bob de Pebrisy 1'16"6 Attelé
01/07/18 8 Trot 13 000€ 2 225m Laon Fakir de Puch 1'18"1 Attelé
01/07/18 1 Trot 20 000€ 2 875m Laon Borsalino du Klau 1'15"6 Attelé
30/06/18 3 Trot 19 000€ 2 850m Vire Etincelle du Parc 1'17"9 Attelé
30/06/18 9 Trot 20 000€ 2 825m Vire Endless Love 1'17"0 Attelé
30/06/18 6 Trot 22 000€ 2 150m Vire Ce Retour d'Oscar 1'14"9 Attelé
30/06/18 7 Trot 28 000€ 2 150m Vire Azur de Carina 1'14"0 Attelé
29/06/18 5 Trot 34 000€ 2 675m Le Mont Saint Michel Be Good 1'15"7 Attelé
29/06/18 3 Trot 20 000€ 2 675m Le Mont Saint Michel Don Juan Madrik 1'16"9 Attelé
29/06/18 3 Trot 19 000€ 2 675m Le Mont Saint Michel Franklin de Meslay 1'18"1 Attelé
28/06/18 D Trot 24 000€ 3 000m Vichy Desira Swift Attelé
28/06/18 6 Trot 32 000€ 3 000m Vichy Epine 1'16"4 Attelé
28/06/18 5 Trot 34 000€ 2 975m Vichy Farouk Fligny 1'18"5 Attelé
28/06/18 8 Trot 70 000€ 2 150m Vichy Vaisman 1'13"4 Attelé lire

Un des animateurs, a été progressivement dominé dans la ligne droite.

27/06/18 6 Trot 21 000€ 2 875m Laval Estebane Sacha 1'14"9 Attelé
27/06/18 4 Trot 21 000€ 2 875m Laval Denys d'Ausson 1'14"4 Attelé
24/06/18 0 Trot 80 000€ 2 850m Vincennes Diable de Vauvert Attelé lire

Après avoir figuré, a conclu correctement mais en retrait.

24/06/18 8 Trot 200 000€ 2 100m Vincennes Akim du Cap Vert 1'11"0 Attelé lire

Longtemps quatrième, a été progressivement dominé dans la phase finale.

24/06/18 3 Trot 200 000€ 2 700m Vincennes Fend la Bise 1'14"2 Attelé lire

Après avoir figuré au sein du peloton, a terminé de bonne manière , a gagné un rang après enquête.

24/06/18 D Trot 53 000€ 2 700m Vincennes Eiko Vet Attelé lire

A pris le galop dans le premier tournant.

23/06/18 1 Mixte 24 000€ 2 625m Morlaix Big Kaiser Attelé
23/06/18 7 Mixte 14 000€ 2 600m Morlaix Cybele Gibus Attelé
23/06/18 1 Mixte 15 000€ 2 625m Morlaix Elise Attelé
21/06/18 D Trot 22 000€ 2 450m Caen Figeac Colmi Attelé
21/06/18 D Trot 26 000€ 2 475m Caen Darling Lorraine Attelé
21/06/18 7 Trot 16 000€ 2 450m Caen Doha de Fromentin 1'16"4 Attelé
18/06/18 2 Trot 24 000€ 3 000m Vichy Borsalino du Klau 1'14"9 Attelé lire

Un des animateurs, a très bien tenu sa partie jusqu'au bout.

En poursuivant votre navigation sur ce site, vous acceptez nos CGU et l'utilisation de cookies afin de réaliser des statistiques d'audiences et vous proposer une navigation optimale, la possibilité de partager des contenus sur des réseaux sociaux ainsi que des services et offres adaptés à vos centres d'intérêts.
Pour en savoir plus et paramétrer les cookies...